ADDS METAR Data INFO
IDs: Format: Raw Decoded Include TAF

Data at: 1718 UTC 25 Feb 2018

KHKA 251653Z AUTO 36007KT 10SM CLR 10/02 A3016 RMK AO2 SLP213 T01000022 $
KHKA 251553Z AUTO 35004KT 10SM CLR 09/03 A3016 RMK AO2 SLP212 T00940028 $
KHKA 251453Z AUTO 34005KT 10SM CLR 08/03 A3015 RMK AO2 SLP210 T00780033 53019 $
KHKA 251353Z AUTO 34004KT 10SM CLR 07/03 A3013 RMK AO2 SLP202 T00720033 $
KHKA 251253Z AUTO 32005KT 10SM CLR 07/03 A3011 RMK AO2 SLP196 T00670028 $
KHKA 251153Z AUTO 32009KT 10SM CLR 07/03 A3010 RMK AO2 SLP190 70076 T00720028 10156 20072 53028 $
KHKA 251053Z AUTO 31012KT 10SM CLR 08/03 A3005 RMK AO2 SLP176 T00780028 $
KHKA 250953Z AUTO 31010KT 10SM CLR 09/04 A3003 RMK AO2 SLP167 T00890044 $
KHKA 250853Z AUTO 31014KT 10SM CLR 10/05 A3001 RMK AO2 SLP162 T01000050 51041 $
KHKA 250753Z AUTO 31012KT 10SM CLR 11/07 A2998 RMK AO2 PK WND 29027/0656 SLP150 T01110067 $
KHKA 250653Z AUTO 29016KT 10SM CLR 12/07 A2996 RMK AO2 PK WND 29028/0635 PRESRR SLP143 T01220072 $
KHKA 250553Z AUTO 24007KT 10SM FEW120 16/13 A2989 RMK AO2 SLP121 60033 T01560133 10217 20144 402170128 53022 $
KHKA 250521Z AUTO 25010KT 10SM SCT024 BKN100 15/13 A2988 RMK AO2 T01500128 $
KHKA 250501Z AUTO 24010G18KT 10SM SCT014 BKN023 15/12 A2985 RMK AO2 T01500122 $
KHKA 250453Z AUTO 24012KT 10SM BKN014 BKN021 15/12 A2987 RMK AO2 RAE06 PRESRR SLP112 P0000 T01500122 $
KHKA 250410Z AUTO 23013G21KT 10SM BKN017 BKN060 OVC100 15/12 A2984 RMK AO2 RAE06 P0000 T01500122 $
KHKA 250353Z AUTO 23015G23KT 10SM -RA FEW018 OVC100 15/12 A2984 RMK AO2 SLP103 P0005 T01500122 $
KHKA 250253Z AUTO 23015G24KT 10SM -RA OVC100 16/12 A2983 RMK AO2 PK WND 21030/0201 SLP099 P0004 60028 T01560122 51045 $
KHKA 250153Z AUTO 23019G33KT 10SM -RA OVC100 17/14 A2979 RMK AO2 PK WND 22036/0058 LTG DSNT E-S SLP086 P0012 T01670144 $
KHKA 250102Z AUTO 22023G36KT 9SM RA FEW045 FEW075 OVC095 17/16 A2977 RMK AO2 PK WND 22036/0058 LTG DSNT E-S P0002 T01720156 $
KHKA 250053Z AUTO 22022G35KT 9SM VCTS -RA FEW039 SCT075 OVC090 18/16 A2976 RMK AO2 PK WND 21043/0028 LTG DSNT E-S SLP077 P0012 T01780156 $
KHKA 250041Z AUTO 22028G43KT 8SM VCTS RA FEW034 BKN044 OVC090 19/16 A2976 RMK AO2 PK WND 21043/0028 LTG DSNT ALQDS P0011 T01890161 $
KHKA 242353Z AUTO 18020KT 10SM -RA OVC090 22/18 A2969 RMK AO2 PK WND 17026/2349 LTG DSNT SW-NW RAB20 SLP052 P0000 60018 T02170178 10217 20183 58024 $
KHKA 242253Z AUTO 18015G24KT 10SM OVC100 22/19 A2972 RMK AO2 PK WND 18026/2210 RAB2154E37 SLP062 P0001 T02170194 $
KHKA 242153Z AUTO 18013KT 10SM FEW039 BKN100 OVC120 21/19 A2975 RMK AO2 RAB14E44 SLP074 P0001 T02060194 $
KHKA 242053Z AUTO 16010KT 10SM BKN095 19/18 A2976 RMK AO2 RAE53 SLP077 P0002 60016 T01890183 58039 $
KHKA 241953Z AUTO 19012KT 10SM -RA FEW025 BKN032 OVC080 19/18 A2982 RMK AO2 SLP097 P0011 T01890178 $
KHKA 241931Z AUTO 19014KT 10SM -RA FEW012 SCT021 OVC085 19/17 A2983 RMK AO2 LTG DSNT SW-N P0008 T01890172
KHKA 241924Z AUTO 19014KT 10SM -RA SCT012 BKN021 OVC085 19/17 A2983 RMK AO2 LTG DSNT E AND SW AND W P0008 T01890172
KHKA 241904Z AUTO 20009G19KT 3SM RA BR BKN014 BKN019 OVC045 19/17 A2983 RMK AO2 LTG DSNT N AND E AND W PRESFR P0007 T01890167
KHKA 241853Z AUTO 20012G21KT 10SM VCTS -RA SCT014 BKN026 OVC047 19/17 A2985 RMK AO2 LTG DSNT ALQDS RAB29 PRESFR SLP107 P0003 T01940172
KHKA 241843Z AUTO 20012KT 10SM VCTS -RA BKN016 OVC026 20/18 A2986 RMK AO2 LTG DSNT ALQDS RAB29 P0001 T02000178
KHKA 241831Z AUTO 19015KT 10SM -RA FEW016 BKN029 OVC055 21/18 A2988 RMK AO2 LTG DSNT ALQDS RAB29 P0000 T02060178
KHKA 241815Z AUTO 19014KT 10SM SCT016 BKN032 OVC055 21/18 A2987 RMK AO2 LTG DSNT NE-S T02060183
KHKA 241800Z AUTO 18011KT 10SM BKN016 OVC042 20/18 A2988 RMK AO2 LTG DSNT NE-S T02000183
KHKA 241753Z AUTO 18009KT 10SM OVC014 20/18 A2988 RMK AO2 LTG DSNT ALQDS RAE24 SLP117 P0001 60025 T02000183 10200 20161 58035
KHKA 241719Z AUTO 18007KT 10SM -RA SCT007 OVC012 19/18 A2990 RMK AO2 LTG DSNT N AND W P0001 T01940183
KHKA 241702Z AUTO 21006KT 8SM VCTS -RA BKN007 OVC012 19/18 A2991 RMK AO2 P0000 T01890178
KHKA 241653Z AUTO 25006KT 2SM VCTS -RA BR SCT007 BKN010 OVC025 19/18 A2992 RMK AO2 VIS 1 1/4V5 RAB02 SLP131 P0024 T01890178
KHKA 241645Z AUTO 21008KT 1 1/2SM VCTS RA BR FEW007 BKN010 OVC020 19/18 A2992 RMK AO2 LTG DSNT W RAB02 P0020 T01940178
KHKA 241638Z AUTO 22010KT 1 3/4SM +RA BR BKN010 BKN020 OVC030 19/18 A2993 RMK AO2 LTG DSNT W RAB02 P0012 T01940178
KHKA 241628Z AUTO 20011KT 10SM -RA BKN012 BKN021 OVC036 20/18 A2994 RMK AO2 RAB02 P0000 T02000178
KHKA 241553Z AUTO 20010KT 10SM SCT012 BKN024 OVC034 20/18 A2996 RMK AO2 SLP143 T02000178
KHKA 241453Z AUTO 20009KT 10SM BKN012 BKN023 OVC029 19/17 A2998 RMK AO2 SLP152 T01890172 58001
KHKA 241409Z AUTO 20010KT 10SM OVC010 18/17 A2999 RMK AO2 CIG 008V012 T01830167
KHKA 241353Z AUTO 20009KT 10SM OVC008 18/17 A2999 RMK AO2 SLP153 T01780167
KHKA 241307Z AUTO 21011KT 10SM OVC008 18/16 A3000 RMK AO2 T01780161
KHKA 241253Z AUTO 20009KT 10SM OVC006 17/16 A3000 RMK AO2 CIG 005V009 SLP156 T01720161
KHKA 241153Z AUTO 18008KT 10SM OVC005 16/15 A2999 RMK AO2 SLP153 60001 70059 T01610150 10161 20128 56012
KHKA 241125Z AUTO 17008KT 10SM OVC005 16/14 A2999 RMK AO2 T01560144
KHKA 241053Z AUTO 17008KT 10SM OVC004 14/13 A3000 RMK AO2 SLP157 T01440133
KHKA 240953Z AUTO 13006KT 10SM BKN006 OVC013 14/13 A3000 RMK AO2 CIG 005V010 SLP158 T01390128
KHKA 240942Z AUTO 12008KT 10SM BKN006 OVC016 14/13 A3000 RMK AO2 T01390128
KHKA 240853Z AUTO 10008KT 10SM BKN009 OVC015 14/12 A3002 RMK AO2 SLP165 60001 T01390122 58038
KHKA 240836Z AUTO 10007KT 8SM OVC009 14/12 A3003 RMK AO2 T01390122
KHKA 240753Z AUTO 09005KT 10SM OVC011 13/12 A3006 RMK AO2 RAB13E23 SLP179 P0001 T01330122
KHKA 240719Z AUTO 08004KT 6SM -RA BR BKN012 OVC018 13/12 A3009 RMK AO2 RAB13 P0001 T01330122
KHKA 240653Z AUTO 08005KT 10SM OVC018 13/12 A3010 RMK AO2 SLP192 T01330117
KHKA 240603Z AUTO 10003KT 10SM OVC028 13/12 A3013 RMK AO2 T01280117
KHKA 240553Z AUTO 12003KT 10SM OVC030 13/12 A3013 RMK AO2 RAE27 SLP203 P0000 60000 T01280117 10133 20128 401610100 58016